sensor_id;sensor_type;location;lat;lon;timestamp;P1;durP1;ratioP1;P2;durP2;ratioP2
57663;SDS011;43493;53.098;6.064;2023-04-24T00:01:47;8.67;;;5.40;;
57663;SDS011;43493;53.098;6.064;2023-04-24T00:04:13;7.73;;;5.20;;
57663;SDS011;43493;53.098;6.064;2023-04-24T00:06:41;7.20;;;4.70;;
57663;SDS011;43493;53.098;6.064;2023-04-24T00:09:08;6.53;;;4.43;;
57663;SDS011;43493;53.098;6.064;2023-04-24T00:11:35;8.10;;;5.00;;
57663;SDS011;43493;53.098;6.064;2023-04-24T00:14:01;9.20;;;4.80;;
57663;SDS011;43493;53.098;6.064;2023-04-24T00:16:27;6.20;;;4.43;;
57663;SDS011;43493;53.098;6.064;2023-04-24T00:18:53;6.73;;;4.60;;
57663;SDS011;43493;53.098;6.064;2023-04-24T00:21:19;6.17;;;4.97;;
57663;SDS011;43493;53.098;6.064;2023-04-24T00:23:45;5.80;;;4.10;;
57663;SDS011;43493;53.098;6.064;2023-04-24T00:26:11;6.47;;;4.63;;
57663;SDS011;43493;53.098;6.064;2023-04-24T00:28:37;6.60;;;4.77;;
57663;SDS011;43493;53.098;6.064;2023-04-24T00:31:02;7.70;;;4.73;;
57663;SDS011;43493;53.098;6.064;2023-04-24T00:33:28;5.83;;;4.30;;
57663;SDS011;43493;53.098;6.064;2023-04-24T00:35:54;8.03;;;4.27;;
57663;SDS011;43493;53.098;6.064;2023-04-24T00:38:20;6.40;;;4.93;;
57663;SDS011;43493;53.098;6.064;2023-04-24T00:40:47;6.73;;;4.40;;
57663;SDS011;43493;53.098;6.064;2023-04-24T00:43:15;7.33;;;4.80;;
57663;SDS011;43493;53.098;6.064;2023-04-24T00:45:41;5.87;;;4.40;;
57663;SDS011;43493;53.098;6.064;2023-04-24T00:48:07;6.33;;;4.60;;
57663;SDS011;43493;53.098;6.064;2023-04-24T00:50:33;7.30;;;5.50;;
57663;SDS011;43493;53.098;6.064;2023-04-24T00:53:00;6.57;;;4.93;;
57663;SDS011;43493;53.098;6.064;2023-04-24T00:55:26;8.17;;;5.37;;
57663;SDS011;43493;53.098;6.064;2023-04-24T00:57:52;8.50;;;5.47;;
57663;SDS011;43493;53.098;6.064;2023-04-24T01:00:18;6.90;;;4.73;;
57663;SDS011;43493;53.098;6.064;2023-04-24T01:02:44;6.97;;;4.90;;
57663;SDS011;43493;53.098;6.064;2023-04-24T01:05:14;8.37;;;5.10;;
57663;SDS011;43493;53.098;6.064;2023-04-24T01:07:43;7.50;;;5.13;;
57663;SDS011;43493;53.098;6.064;2023-04-24T01:10:11;6.20;;;4.33;;
57663;SDS011;43493;53.098;6.064;2023-04-24T01:12:37;7.70;;;4.47;;
57663;SDS011;43493;53.098;6.064;2023-04-24T01:15:04;7.10;;;4.33;;
57663;SDS011;43493;53.098;6.064;2023-04-24T01:17:31;7.43;;;3.97;;
57663;SDS011;43493;53.098;6.064;2023-04-24T01:19:58;6.13;;;3.70;;
57663;SDS011;43493;53.098;6.064;2023-04-24T01:22:25;6.70;;;3.63;;
57663;SDS011;43493;53.098;6.064;2023-04-24T01:24:51;6.27;;;3.60;;
57663;SDS011;43493;53.098;6.064;2023-04-24T01:27:18;5.67;;;3.57;;
57663;SDS011;43493;53.098;6.064;2023-04-24T01:29:45;6.57;;;3.50;;
57663;SDS011;43493;53.098;6.064;2023-04-24T01:32:12;4.80;;;3.30;;
57663;SDS011;43493;53.098;6.064;2023-04-24T01:34:38;5.27;;;3.03;;
57663;SDS011;43493;53.098;6.064;2023-04-24T01:37:05;4.83;;;3.37;;
57663;SDS011;43493;53.098;6.064;2023-04-24T01:39:31;5.07;;;3.23;;
57663;SDS011;43493;53.098;6.064;2023-04-24T01:41:58;4.63;;;3.10;;
57663;SDS011;43493;53.098;6.064;2023-04-24T01:44:25;4.40;;;3.10;;
57663;SDS011;43493;53.098;6.064;2023-04-24T01:46:51;4.80;;;3.30;;
57663;SDS011;43493;53.098;6.064;2023-04-24T01:49:19;4.80;;;3.47;;
57663;SDS011;43493;53.098;6.064;2023-04-24T01:51:45;4.93;;;3.40;;
57663;SDS011;43493;53.098;6.064;2023-04-24T01:54:11;4.73;;;3.77;;
57663;SDS011;43493;53.098;6.064;2023-04-24T01:56:39;5.40;;;3.60;;
57663;SDS011;43493;53.098;6.064;2023-04-24T01:59:07;5.57;;;3.70;;
57663;SDS011;43493;53.098;6.064;2023-04-24T02:01:35;6.87;;;3.90;;
57663;SDS011;43493;53.098;6.064;2023-04-24T02:04:02;5.47;;;3.80;;
57663;SDS011;43493;53.098;6.064;2023-04-24T02:06:28;6.80;;;4.27;;
57663;SDS011;43493;53.098;6.064;2023-04-24T02:08:56;5.27;;;3.90;;
57663;SDS011;43493;53.098;6.064;2023-04-24T02:11:23;6.40;;;4.40;;
57663;SDS011;43493;53.098;6.064;2023-04-24T02:13:49;7.17;;;4.60;;
57663;SDS011;43493;53.098;6.064;2023-04-24T02:16:15;5.33;;;4.27;;
57663;SDS011;43493;53.098;6.064;2023-04-24T02:18:41;7.47;;;5.07;;
57663;SDS011;43493;53.098;6.064;2023-04-24T02:21:07;6.17;;;4.97;;
57663;SDS011;43493;53.098;6.064;2023-04-24T02:23:32;7.10;;;4.80;;
57663;SDS011;43493;53.098;6.064;2023-04-24T02:25:58;7.03;;;5.27;;
57663;SDS011;43493;53.098;6.064;2023-04-24T02:28:24;6.43;;;5.10;;
57663;SDS011;43493;53.098;6.064;2023-04-24T02:30:50;9.07;;;5.73;;
57663;SDS011;43493;53.098;6.064;2023-04-24T02:33:16;7.57;;;5.83;;
57663;SDS011;43493;53.098;6.064;2023-04-24T02:35:41;7.17;;;5.83;;
57663;SDS011;43493;53.098;6.064;2023-04-24T02:38:07;7.40;;;6.07;;
57663;SDS011;43493;53.098;6.064;2023-04-24T02:40:33;7.80;;;6.03;;
57663;SDS011;43493;53.098;6.064;2023-04-24T02:42:59;8.87;;;6.27;;
57663;SDS011;43493;53.098;6.064;2023-04-24T02:45:24;8.67;;;7.13;;
57663;SDS011;43493;53.098;6.064;2023-04-24T02:47:50;8.77;;;6.57;;
57663;SDS011;43493;53.098;6.064;2023-04-24T02:50:16;8.00;;;6.83;;
57663;SDS011;43493;53.098;6.064;2023-04-24T02:52:42;7.97;;;6.13;;
57663;SDS011;43493;53.098;6.064;2023-04-24T02:55:07;8.57;;;7.07;;
57663;SDS011;43493;53.098;6.064;2023-04-24T02:57:33;8.00;;;6.97;;
57663;SDS011;43493;53.098;6.064;2023-04-24T02:59:59;10.13;;;6.93;;
57663;SDS011;43493;53.098;6.064;2023-04-24T03:02:25;8.50;;;7.37;;
57663;SDS011;43493;53.098;6.064;2023-04-24T03:04:50;9.50;;;8.07;;
57663;SDS011;43493;53.098;6.064;2023-04-24T03:07:16;8.53;;;7.13;;
57663;SDS011;43493;53.098;6.064;2023-04-24T03:09:45;8.63;;;7.57;;
57663;SDS011;43493;53.098;6.064;2023-04-24T03:12:12;10.17;;;8.00;;
57663;SDS011;43493;53.098;6.064;2023-04-24T03:14:38;11.47;;;7.77;;
57663;SDS011;43493;53.098;6.064;2023-04-24T03:17:04;10.33;;;8.23;;
57663;SDS011;43493;53.098;6.064;2023-04-24T03:19:30;11.03;;;8.03;;
57663;SDS011;43493;53.098;6.064;2023-04-24T03:21:55;9.97;;;7.87;;
57663;SDS011;43493;53.098;6.064;2023-04-24T03:24:21;8.93;;;7.70;;
57663;SDS011;43493;53.098;6.064;2023-04-24T03:26:47;9.60;;;7.87;;
57663;SDS011;43493;53.098;6.064;2023-04-24T03:29:13;11.63;;;8.53;;
57663;SDS011;43493;53.098;6.064;2023-04-24T03:31:39;9.10;;;8.10;;
57663;SDS011;43493;53.098;6.064;2023-04-24T03:34:04;9.50;;;6.87;;
57663;SDS011;43493;53.098;6.064;2023-04-24T03:36:30;6.53;;;5.40;;
57663;SDS011;43493;53.098;6.064;2023-04-24T03:38:56;5.90;;;4.27;;
57663;SDS011;43493;53.098;6.064;2023-04-24T03:41:22;6.57;;;4.57;;
57663;SDS011;43493;53.098;6.064;2023-04-24T03:43:48;5.57;;;3.50;;
57663;SDS011;43493;53.098;6.064;2023-04-24T03:46:13;6.00;;;3.07;;
57663;SDS011;43493;53.098;6.064;2023-04-24T03:48:40;3.80;;;2.17;;
57663;SDS011;43493;53.098;6.064;2023-04-24T03:51:05;3.20;;;1.87;;
57663;SDS011;43493;53.098;6.064;2023-04-24T03:53:31;3.03;;;1.67;;
57663;SDS011;43493;53.098;6.064;2023-04-24T03:55:57;3.17;;;1.93;;
57663;SDS011;43493;53.098;6.064;2023-04-24T03:58:22;3.83;;;1.90;;
57663;SDS011;43493;53.098;6.064;2023-04-24T04:00:48;2.63;;;1.50;;
57663;SDS011;43493;53.098;6.064;2023-04-24T04:03:14;2.37;;;1.40;;
57663;SDS011;43493;53.098;6.064;2023-04-24T04:05:40;3.20;;;1.30;;
57663;SDS011;43493;53.098;6.064;2023-04-24T04:08:06;3.00;;;1.37;;
57663;SDS011;43493;53.098;6.064;2023-04-24T04:10:32;3.10;;;1.40;;
57663;SDS011;43493;53.098;6.064;2023-04-24T04:12:57;2.03;;;1.20;;
57663;SDS011;43493;53.098;6.064;2023-04-24T04:15:23;3.43;;;1.83;;
57663;SDS011;43493;53.098;6.064;2023-04-24T04:17:49;3.17;;;1.70;;
57663;SDS011;43493;53.098;6.064;2023-04-24T04:20:14;2.57;;;1.50;;
57663;SDS011;43493;53.098;6.064;2023-04-24T04:22:40;3.63;;;1.77;;
57663;SDS011;43493;53.098;6.064;2023-04-24T04:25:06;4.03;;;1.80;;
57663;SDS011;43493;53.098;6.064;2023-04-24T04:27:33;3.50;;;1.90;;
57663;SDS011;43493;53.098;6.064;2023-04-24T04:29:59;3.70;;;1.83;;
57663;SDS011;43493;53.098;6.064;2023-04-24T04:32:33;2.87;;;1.73;;
57663;SDS011;43493;53.098;6.064;2023-04-24T04:35:00;3.80;;;2.17;;
57663;SDS011;43493;53.098;6.064;2023-04-24T04:37:37;7.50;;;2.53;;
57663;SDS011;43493;53.098;6.064;2023-04-24T04:40:03;5.10;;;2.47;;
57663;SDS011;43493;53.098;6.064;2023-04-24T04:42:32;4.13;;;2.33;;
57663;SDS011;43493;53.098;6.064;2023-04-24T04:44:59;4.00;;;2.40;;
57663;SDS011;43493;53.098;6.064;2023-04-24T04:47:25;3.77;;;2.03;;
57663;SDS011;43493;53.098;6.064;2023-04-24T04:49:53;4.67;;;2.30;;
57663;SDS011;43493;53.098;6.064;2023-04-24T04:52:19;3.83;;;2.30;;
57663;SDS011;43493;53.098;6.064;2023-04-24T04:54:49;4.63;;;2.43;;
57663;SDS011;43493;53.098;6.064;2023-04-24T04:57:15;7.00;;;3.00;;
57663;SDS011;43493;53.098;6.064;2023-04-24T04:59:41;6.53;;;3.60;;
57663;SDS011;43493;53.098;6.064;2023-04-24T05:02:07;6.43;;;4.10;;
57663;SDS011;43493;53.098;6.064;2023-04-24T05:04:33;6.87;;;3.50;;
57663;SDS011;43493;53.098;6.064;2023-04-24T05:06:58;5.87;;;3.97;;
57663;SDS011;43493;53.098;6.064;2023-04-24T05:09:24;8.63;;;4.23;;
57663;SDS011;43493;53.098;6.064;2023-04-24T05:11:52;8.40;;;4.30;;
57663;SDS011;43493;53.098;6.064;2023-04-24T05:14:18;6.67;;;3.97;;
57663;SDS011;43493;53.098;6.064;2023-04-24T05:16:44;6.47;;;4.30;;
57663;SDS011;43493;53.098;6.064;2023-04-24T05:19:10;7.20;;;4.00;;
57663;SDS011;43493;53.098;6.064;2023-04-24T05:21:40;6.53;;;3.60;;
57663;SDS011;43493;53.098;6.064;2023-04-24T05:24:06;7.87;;;4.57;;
57663;SDS011;43493;53.098;6.064;2023-04-24T05:26:32;6.27;;;3.97;;
57663;SDS011;43493;53.098;6.064;2023-04-24T05:28:58;6.23;;;4.27;;
57663;SDS011;43493;53.098;6.064;2023-04-24T05:31:23;6.67;;;4.20;;
57663;SDS011;43493;53.098;6.064;2023-04-24T05:33:50;8.87;;;4.43;;
57663;SDS011;43493;53.098;6.064;2023-04-24T05:36:16;7.73;;;5.00;;
57663;SDS011;43493;53.098;6.064;2023-04-24T05:38:41;7.40;;;5.03;;
57663;SDS011;43493;53.098;6.064;2023-04-24T05:41:07;9.73;;;6.20;;
57663;SDS011;43493;53.098;6.064;2023-04-24T05:43:33;10.60;;;6.00;;
57663;SDS011;43493;53.098;6.064;2023-04-24T05:45:58;8.87;;;5.30;;
57663;SDS011;43493;53.098;6.064;2023-04-24T05:48:25;7.43;;;4.43;;
57663;SDS011;43493;53.098;6.064;2023-04-24T05:50:51;7.10;;;4.00;;
57663;SDS011;43493;53.098;6.064;2023-04-24T05:53:17;8.37;;;3.77;;
57663;SDS011;43493;53.098;6.064;2023-04-24T05:55:43;7.43;;;4.00;;
57663;SDS011;43493;53.098;6.064;2023-04-24T05:58:10;7.30;;;4.20;;
57663;SDS011;43493;53.098;6.064;2023-04-24T06:00:36;6.03;;;3.50;;
57663;SDS011;43493;53.098;6.064;2023-04-24T06:03:02;5.13;;;2.90;;
57663;SDS011;43493;53.098;6.064;2023-04-24T06:05:28;4.43;;;2.70;;
57663;SDS011;43493;53.098;6.064;2023-04-24T06:07:55;4.70;;;2.67;;
57663;SDS011;43493;53.098;6.064;2023-04-24T06:10:21;6.23;;;2.30;;
57663;SDS011;43493;53.098;6.064;2023-04-24T06:12:47;4.47;;;2.10;;
57663;SDS011;43493;53.098;6.064;2023-04-24T06:15:12;4.80;;;2.47;;
57663;SDS011;43493;53.098;6.064;2023-04-24T06:17:38;4.23;;;2.17;;
57663;SDS011;43493;53.098;6.064;2023-04-24T06:20:04;5.17;;;2.27;;
57663;SDS011;43493;53.098;6.064;2023-04-24T06:22:31;7.17;;;1.83;;
57663;SDS011;43493;53.098;6.064;2023-04-24T06:24:57;6.03;;;2.00;;
57663;SDS011;43493;53.098;6.064;2023-04-24T06:27:24;6.57;;;1.90;;
57663;SDS011;43493;53.098;6.064;2023-04-24T06:29:50;5.30;;;1.70;;
57663;SDS011;43493;53.098;6.064;2023-04-24T06:32:20;3.60;;;1.40;;
57663;SDS011;43493;53.098;6.064;2023-04-24T06:34:50;4.23;;;1.73;;
57663;SDS011;43493;53.098;6.064;2023-04-24T06:37:17;3.17;;;1.50;;
57663;SDS011;43493;53.098;6.064;2023-04-24T06:39:44;4.03;;;1.57;;
57663;SDS011;43493;53.098;6.064;2023-04-24T06:42:10;4.60;;;1.90;;
57663;SDS011;43493;53.098;6.064;2023-04-24T06:44:36;5.47;;;1.80;;
57663;SDS011;43493;53.098;6.064;2023-04-24T06:47:09;5.37;;;1.83;;
57663;SDS011;43493;53.098;6.064;2023-04-24T06:49:38;5.90;;;2.20;;
57663;SDS011;43493;53.098;6.064;2023-04-24T06:52:04;6.60;;;2.50;;
57663;SDS011;43493;53.098;6.064;2023-04-24T06:54:31;5.63;;;2.63;;
57663;SDS011;43493;53.098;6.064;2023-04-24T06:56:58;5.57;;;2.77;;
57663;SDS011;43493;53.098;6.064;2023-04-24T06:59:25;6.67;;;2.43;;
57663;SDS011;43493;53.098;6.064;2023-04-24T07:01:52;5.60;;;2.07;;
57663;SDS011;43493;53.098;6.064;2023-04-24T07:04:17;6.73;;;2.30;;
57663;SDS011;43493;53.098;6.064;2023-04-24T07:06:44;5.23;;;2.23;;
57663;SDS011;43493;53.098;6.064;2023-04-24T07:09:11;9.50;;;3.37;;
57663;SDS011;43493;53.098;6.064;2023-04-24T07:11:38;10.47;;;4.90;;
57663;SDS011;43493;53.098;6.064;2023-04-24T07:14:05;10.23;;;5.03;;
57663;SDS011;43493;53.098;6.064;2023-04-24T07:16:32;10.93;;;6.07;;
57663;SDS011;43493;53.098;6.064;2023-04-24T07:18:57;11.93;;;6.80;;
57663;SDS011;43493;53.098;6.064;2023-04-24T07:21:23;11.03;;;6.50;;
57663;SDS011;43493;53.098;6.064;2023-04-24T07:23:49;15.50;;;9.10;;
57663;SDS011;43493;53.098;6.064;2023-04-24T07:26:16;18.70;;;8.90;;
57663;SDS011;43493;53.098;6.064;2023-04-24T07:28:41;16.10;;;9.40;;
57663;SDS011;43493;53.098;6.064;2023-04-24T07:31:07;16.10;;;8.80;;
57663;SDS011;43493;53.098;6.064;2023-04-24T07:33:33;15.90;;;9.27;;
57663;SDS011;43493;53.098;6.064;2023-04-24T07:36:01;15.80;;;9.00;;
57663;SDS011;43493;53.098;6.064;2023-04-24T07:38:29;15.20;;;8.33;;
57663;SDS011;43493;53.098;6.064;2023-04-24T07:40:55;14.97;;;8.13;;
57663;SDS011;43493;53.098;6.064;2023-04-24T07:43:21;16.10;;;8.43;;
57663;SDS011;43493;53.098;6.064;2023-04-24T07:45:47;14.80;;;8.50;;
57663;SDS011;43493;53.098;6.064;2023-04-24T07:48:12;12.50;;;7.53;;
57663;SDS011;43493;53.098;6.064;2023-04-24T07:50:41;12.60;;;8.20;;
57663;SDS011;43493;53.098;6.064;2023-04-24T07:53:07;14.93;;;9.90;;
57663;SDS011;43493;53.098;6.064;2023-04-24T07:55:33;17.53;;;10.77;;
57663;SDS011;43493;53.098;6.064;2023-04-24T07:57:59;16.13;;;9.23;;
57663;SDS011;43493;53.098;6.064;2023-04-24T08:00:24;18.50;;;10.57;;
57663;SDS011;43493;53.098;6.064;2023-04-24T08:02:50;16.80;;;10.87;;
57663;SDS011;43493;53.098;6.064;2023-04-24T08:05:16;16.37;;;10.03;;
57663;SDS011;43493;53.098;6.064;2023-04-24T08:07:42;16.47;;;10.57;;
57663;SDS011;43493;53.098;6.064;2023-04-24T08:10:09;15.20;;;10.47;;
57663;SDS011;43493;53.098;6.064;2023-04-24T08:12:36;13.87;;;9.70;;
57663;SDS011;43493;53.098;6.064;2023-04-24T08:15:02;16.17;;;9.37;;
57663;SDS011;43493;53.098;6.064;2023-04-24T08:17:28;11.90;;;7.93;;
57663;SDS011;43493;53.098;6.064;2023-04-24T08:19:54;12.57;;;7.93;;
57663;SDS011;43493;53.098;6.064;2023-04-24T08:22:26;14.37;;;7.57;;
57663;SDS011;43493;53.098;6.064;2023-04-24T08:24:55;9.97;;;7.07;;
57663;SDS011;43493;53.098;6.064;2023-04-24T08:27:22;11.90;;;6.10;;
57663;SDS011;43493;53.098;6.064;2023-04-24T08:29:49;11.03;;;6.10;;
57663;SDS011;43493;53.098;6.064;2023-04-24T08:32:14;9.70;;;5.60;;
57663;SDS011;43493;53.098;6.064;2023-04-24T08:34:42;10.53;;;4.90;;
57663;SDS011;43493;53.098;6.064;2023-04-24T08:37:07;12.43;;;6.10;;
57663;SDS011;43493;53.098;6.064;2023-04-24T08:39:33;12.87;;;5.63;;
57663;SDS011;43493;53.098;6.064;2023-04-24T08:41:59;9.80;;;5.53;;
57663;SDS011;43493;53.098;6.064;2023-04-24T08:44:33;10.53;;;5.33;;
57663;SDS011;43493;53.098;6.064;2023-04-24T08:47:03;12.53;;;6.33;;
57663;SDS011;43493;53.098;6.064;2023-04-24T08:49:30;12.17;;;5.40;;
57663;SDS011;43493;53.098;6.064;2023-04-24T08:51:56;11.53;;;6.10;;
57663;SDS011;43493;53.098;6.064;2023-04-24T08:54:22;15.97;;;5.80;;
57663;SDS011;43493;53.098;6.064;2023-04-24T08:56:49;8.83;;;5.20;;
57663;SDS011;43493;53.098;6.064;2023-04-24T08:59:16;14.37;;;5.57;;
57663;SDS011;43493;53.098;6.064;2023-04-24T09:01:42;10.90;;;5.47;;
57663;SDS011;43493;53.098;6.064;2023-04-24T09:04:10;14.43;;;6.23;;
57663;SDS011;43493;53.098;6.064;2023-04-24T09:06:39;11.90;;;4.40;;
57663;SDS011;43493;53.098;6.064;2023-04-24T09:09:05;10.50;;;4.23;;
57663;SDS011;43493;53.098;6.064;2023-04-24T09:11:31;16.43;;;4.60;;
57663;SDS011;43493;53.098;6.064;2023-04-24T09:13:59;12.73;;;4.50;;
57663;SDS011;43493;53.098;6.064;2023-04-24T09:16:25;13.90;;;4.67;;
57663;SDS011;43493;53.098;6.064;2023-04-24T09:18:51;10.37;;;4.30;;
57663;SDS011;43493;53.098;6.064;2023-04-24T09:21:19;11.67;;;3.73;;
57663;SDS011;43493;53.098;6.064;2023-04-24T09:23:46;14.00;;;4.17;;
57663;SDS011;43493;53.098;6.064;2023-04-24T09:26:11;8.13;;;2.90;;
57663;SDS011;43493;53.098;6.064;2023-04-24T09:28:39;10.60;;;3.60;;
57663;SDS011;43493;53.098;6.064;2023-04-24T09:31:11;8.93;;;2.73;;
57663;SDS011;43493;53.098;6.064;2023-04-24T09:33:39;11.57;;;4.13;;
57663;SDS011;43493;53.098;6.064;2023-04-24T09:36:05;7.67;;;2.73;;
57663;SDS011;43493;53.098;6.064;2023-04-24T09:38:37;10.07;;;3.37;;
57663;SDS011;43493;53.098;6.064;2023-04-24T09:41:07;8.40;;;3.10;;
57663;SDS011;43493;53.098;6.064;2023-04-24T09:43:33;16.87;;;4.40;;
57663;SDS011;43493;53.098;6.064;2023-04-24T09:46:03;12.33;;;3.80;;
57663;SDS011;43493;53.098;6.064;2023-04-24T09:48:35;13.50;;;3.40;;
57663;SDS011;43493;53.098;6.064;2023-04-24T09:51:03;12.47;;;4.23;;
57663;SDS011;43493;53.098;6.064;2023-04-24T09:53:32;12.57;;;3.40;;
57663;SDS011;43493;53.098;6.064;2023-04-24T09:56:08;7.10;;;2.63;;
57663;SDS011;43493;53.098;6.064;2023-04-24T09:58:38;8.97;;;2.60;;
57663;SDS011;43493;53.098;6.064;2023-04-24T10:01:04;11.60;;;2.83;;
57663;SDS011;43493;53.098;6.064;2023-04-24T10:03:30;8.60;;;2.00;;
57663;SDS011;43493;53.098;6.064;2023-04-24T10:06:00;7.57;;;2.10;;
57663;SDS011;43493;53.098;6.064;2023-04-24T10:08:34;8.90;;;2.53;;
57663;SDS011;43493;53.098;6.064;2023-04-24T10:11:01;11.03;;;2.50;;
57663;SDS011;43493;53.098;6.064;2023-04-24T10:13:27;8.07;;;2.43;;
57663;SDS011;43493;53.098;6.064;2023-04-24T10:15:53;6.13;;;2.20;;
57663;SDS011;43493;53.098;6.064;2023-04-24T10:18:21;9.57;;;2.67;;
57663;SDS011;43493;53.098;6.064;2023-04-24T10:20:47;12.03;;;2.60;;
57663;SDS011;43493;53.098;6.064;2023-04-24T10:23:13;7.13;;;2.57;;
57663;SDS011;43493;53.098;6.064;2023-04-24T10:25:40;10.90;;;2.30;;
57663;SDS011;43493;53.098;6.064;2023-04-24T10:28:06;10.23;;;2.20;;
57663;SDS011;43493;53.098;6.064;2023-04-24T10:30:33;7.27;;;2.43;;
57663;SDS011;43493;53.098;6.064;2023-04-24T10:33:06;6.87;;;2.40;;
57663;SDS011;43493;53.098;6.064;2023-04-24T10:35:35;7.43;;;2.10;;
57663;SDS011;43493;53.098;6.064;2023-04-24T10:38:05;13.20;;;2.67;;
57663;SDS011;43493;53.098;6.064;2023-04-24T10:40:34;11.27;;;2.40;;
57663;SDS011;43493;53.098;6.064;2023-04-24T10:43:04;9.40;;;2.10;;
57663;SDS011;43493;53.098;6.064;2023-04-24T10:45:33;8.13;;;2.17;;
57663;SDS011;43493;53.098;6.064;2023-04-24T10:50:29;6.90;;;2.07;;
57663;SDS011;43493;53.098;6.064;2023-04-24T10:53:07;13.97;;;2.50;;
57663;SDS011;43493;53.098;6.064;2023-04-24T10:55:42;10.67;;;2.70;;
57663;SDS011;43493;53.098;6.064;2023-04-24T10:58:11;9.13;;;2.10;;
57663;SDS011;43493;53.098;6.064;2023-04-24T11:00:38;10.30;;;2.67;;
57663;SDS011;43493;53.098;6.064;2023-04-24T11:03:05;7.43;;;2.23;;
57663;SDS011;43493;53.098;6.064;2023-04-24T11:11:02;7.07;;;2.10;;
57663;SDS011;43493;53.098;6.064;2023-04-24T11:14:14;9.07;;;1.93;;
57663;SDS011;43493;53.098;6.064;2023-04-24T11:16:21;12.00;;;2.10;;
57663;SDS011;43493;53.098;6.064;2023-04-24T11:21:46;11.53;;;2.77;;
57663;SDS011;43493;53.098;6.064;2023-04-24T11:26:51;9.43;;;2.07;;
57663;SDS011;43493;53.098;6.064;2023-04-24T11:29:21;7.83;;;2.17;;
57663;SDS011;43493;53.098;6.064;2023-04-24T11:31:48;9.30;;;2.33;;
57663;SDS011;43493;53.098;6.064;2023-04-24T11:34:17;10.10;;;2.13;;
57663;SDS011;43493;53.098;6.064;2023-04-24T11:36:44;8.10;;;2.10;;
57663;SDS011;43493;53.098;6.064;2023-04-24T11:39:13;11.40;;;2.47;;
57663;SDS011;43493;53.098;6.064;2023-04-24T11:41:39;5.27;;;1.60;;
57663;SDS011;43493;53.098;6.064;2023-04-24T11:44:08;8.57;;;1.80;;
57663;SDS011;43493;53.098;6.064;2023-04-24T11:46:36;8.90;;;2.30;;
57663;SDS011;43493;53.098;6.064;2023-04-24T11:49:05;6.57;;;1.77;;
57663;SDS011;43493;53.098;6.064;2023-04-24T11:51:31;7.00;;;2.43;;
57663;SDS011;43493;53.098;6.064;2023-04-24T11:53:57;6.73;;;2.17;;
57663;SDS011;43493;53.098;6.064;2023-04-24T11:56:24;6.33;;;1.90;;
57663;SDS011;43493;53.098;6.064;2023-04-24T11:58:53;6.27;;;1.70;;
57663;SDS011;43493;53.098;6.064;2023-04-24T12:01:19;7.10;;;1.63;;
57663;SDS011;43493;53.098;6.064;2023-04-24T12:03:49;6.87;;;1.40;;
57663;SDS011;43493;53.098;6.064;2023-04-24T12:06:16;7.00;;;1.70;;
57663;SDS011;43493;53.098;6.064;2023-04-24T12:08:45;9.67;;;1.73;;
57663;SDS011;43493;53.098;6.064;2023-04-24T12:11:14;8.87;;;1.73;;
57663;SDS011;43493;53.098;6.064;2023-04-24T12:13:40;7.50;;;1.70;;
57663;SDS011;43493;53.098;6.064;2023-04-24T12:16:06;9.80;;;1.60;;
57663;SDS011;43493;53.098;6.064;2023-04-24T12:18:32;4.40;;;1.40;;
57663;SDS011;43493;53.098;6.064;2023-04-24T12:23:46;7.53;;;1.67;;
57663;SDS011;43493;53.098;6.064;2023-04-24T12:26:16;6.27;;;1.60;;
57663;SDS011;43493;53.098;6.064;2023-04-24T12:28:46;7.97;;;1.80;;
57663;SDS011;43493;53.098;6.064;2023-04-24T12:31:14;5.63;;;1.20;;
57663;SDS011;43493;53.098;6.064;2023-04-24T12:33:45;4.27;;;1.10;;
57663;SDS011;43493;53.098;6.064;2023-04-24T12:36:11;3.63;;;1.03;;
57663;SDS011;43493;53.098;6.064;2023-04-24T12:38:37;5.97;;;1.53;;
57663;SDS011;43493;53.098;6.064;2023-04-24T12:41:07;6.87;;;1.33;;
57663;SDS011;43493;53.098;6.064;2023-04-24T12:43:37;4.47;;;1.83;;
57663;SDS011;43493;53.098;6.064;2023-04-24T12:46:03;7.60;;;1.30;;
57663;SDS011;43493;53.098;6.064;2023-04-24T12:48:30;3.33;;;0.90;;
57663;SDS011;43493;53.098;6.064;2023-04-24T12:50:59;4.17;;;1.03;;
57663;SDS011;43493;53.098;6.064;2023-04-24T12:53:28;5.80;;;1.10;;
57663;SDS011;43493;53.098;6.064;2023-04-24T12:55:57;5.90;;;1.60;;
57663;SDS011;43493;53.098;6.064;2023-04-24T12:58:23;7.20;;;1.50;;
57663;SDS011;43493;53.098;6.064;2023-04-24T13:00:49;4.33;;;0.93;;
57663;SDS011;43493;53.098;6.064;2023-04-24T13:03:15;3.33;;;0.90;;
57663;SDS011;43493;53.098;6.064;2023-04-24T13:05:41;2.27;;;1.10;;
57663;SDS011;43493;53.098;6.064;2023-04-24T13:08:08;3.03;;;1.07;;
57663;SDS011;43493;53.098;6.064;2023-04-24T13:10:34;4.20;;;1.13;;
57663;SDS011;43493;53.098;6.064;2023-04-24T13:12:59;3.30;;;1.00;;
57663;SDS011;43493;53.098;6.064;2023-04-24T13:15:25;5.20;;;1.10;;
57663;SDS011;43493;53.098;6.064;2023-04-24T13:17:51;4.67;;;1.10;;
57663;SDS011;43493;53.098;6.064;2023-04-24T13:20:17;3.93;;;1.10;;
57663;SDS011;43493;53.098;6.064;2023-04-24T13:22:43;4.70;;;1.40;;
57663;SDS011;43493;53.098;6.064;2023-04-24T13:25:09;5.63;;;1.27;;
57663;SDS011;43493;53.098;6.064;2023-04-24T13:27:35;5.23;;;1.57;;
57663;SDS011;43493;53.098;6.064;2023-04-24T13:30:03;8.87;;;2.20;;
57663;SDS011;43493;53.098;6.064;2023-04-24T13:32:29;9.27;;;1.70;;
57663;SDS011;43493;53.098;6.064;2023-04-24T13:34:55;8.17;;;2.17;;
57663;SDS011;43493;53.098;6.064;2023-04-24T13:37:21;7.67;;;1.87;;
57663;SDS011;43493;53.098;6.064;2023-04-24T13:39:47;7.53;;;1.73;;
57663;SDS011;43493;53.098;6.064;2023-04-24T13:42:13;10.00;;;2.87;;
57663;SDS011;43493;53.098;6.064;2023-04-24T13:44:39;9.87;;;2.43;;
57663;SDS011;43493;53.098;6.064;2023-04-24T13:47:05;8.70;;;1.57;;
57663;SDS011;43493;53.098;6.064;2023-04-24T13:49:31;10.67;;;2.73;;
57663;SDS011;43493;53.098;6.064;2023-04-24T13:51:56;8.60;;;1.97;;
57663;SDS011;43493;53.098;6.064;2023-04-24T13:54:22;11.83;;;2.10;;
57663;SDS011;43493;53.098;6.064;2023-04-24T13:56:51;11.80;;;2.60;;
57663;SDS011;43493;53.098;6.064;2023-04-24T13:59:17;11.03;;;3.27;;
57663;SDS011;43493;53.098;6.064;2023-04-24T14:01:44;10.03;;;2.40;;
57663;SDS011;43493;53.098;6.064;2023-04-24T14:04:10;9.13;;;2.60;;
57663;SDS011;43493;53.098;6.064;2023-04-24T14:06:36;8.37;;;2.60;;
57663;SDS011;43493;53.098;6.064;2023-04-24T14:09:01;9.43;;;2.00;;
57663;SDS011;43493;53.098;6.064;2023-04-24T14:11:27;9.30;;;2.63;;
57663;SDS011;43493;53.098;6.064;2023-04-24T14:13:54;12.40;;;2.93;;
57663;SDS011;43493;53.098;6.064;2023-04-24T14:16:23;12.93;;;2.60;;
57663;SDS011;43493;53.098;6.064;2023-04-24T14:18:49;13.83;;;3.23;;
57663;SDS011;43493;53.098;6.064;2023-04-24T14:21:15;13.73;;;2.83;;
57663;SDS011;43493;53.098;6.064;2023-04-24T14:23:41;11.17;;;2.97;;
57663;SDS011;43493;53.098;6.064;2023-04-24T14:26:07;10.57;;;2.13;;
57663;SDS011;43493;53.098;6.064;2023-04-24T14:28:32;11.13;;;2.90;;
57663;SDS011;43493;53.098;6.064;2023-04-24T14:30:59;11.73;;;2.33;;
57663;SDS011;43493;53.098;6.064;2023-04-24T14:33:24;10.53;;;2.50;;
57663;SDS011;43493;53.098;6.064;2023-04-24T14:35:50;10.27;;;3.03;;
57663;SDS011;43493;53.098;6.064;2023-04-24T14:38:16;15.80;;;4.07;;
57663;SDS011;43493;53.098;6.064;2023-04-24T14:40:41;16.77;;;3.63;;
57663;SDS011;43493;53.098;6.064;2023-04-24T14:43:07;10.33;;;2.53;;
57663;SDS011;43493;53.098;6.064;2023-04-24T14:45:33;9.50;;;2.93;;
57663;SDS011;43493;53.098;6.064;2023-04-24T14:47:59;13.10;;;2.37;;
57663;SDS011;43493;53.098;6.064;2023-04-24T14:50:24;8.80;;;2.50;;
57663;SDS011;43493;53.098;6.064;2023-04-24T14:52:53;9.83;;;3.00;;
57663;SDS011;43493;53.098;6.064;2023-04-24T14:55:22;14.00;;;4.00;;
57663;SDS011;43493;53.098;6.064;2023-04-24T14:57:48;13.87;;;3.73;;